Time;durP1;ratioP1;P1;durP2;ratioP2;P2;SDS_P1;SDS_P2;PMS_P1;PMS_P2;Temp;Humidity;BMP_temperature;BMP_pressure;BME280_temperature;BME280_humidity;BME280_pressure;Samples;Min_cycle;Max_cycle;Signal;HPM_P1;HPM_P2
2022/04/04 00:01:15;;;;;;;2.33;2.13;;;;;;;18.34;40.59;100886.59;;;;-51
2022/04/04 00:04:15;;;;;;;2.19;1.99;;;;;;;18.33;40.68;100885.86;;;;-50
2022/04/04 00:07:15;;;;;;;2.32;2.12;;;;;;;18.32;40.65;100888.91;;;;-58
2022/04/04 00:10:15;;;;;;;2.42;2.21;;;;;;;18.31;40.71;100888.01;;;;-58
2022/04/04 00:13:15;;;;;;;2.32;2.02;;;;;;;18.30;40.66;100883.44;;;;-58
2022/04/04 00:16:14;;;;;;;2.16;2.00;;;;;;;18.27;40.61;100884.53;;;;-56
2022/04/04 00:19:15;;;;;;;2.30;2.10;;;;;;;18.26;40.67;100879.98;;;;-55
2022/04/04 00:22:15;;;;;;;2.40;2.20;;;;;;;18.26;40.68;100878.28;;;;-54
2022/04/04 00:25:15;;;;;;;2.91;2.11;;;;;;;18.24;40.63;100880.23;;;;-57
2022/04/04 00:28:15;;;;;;;2.24;2.04;;;;;;;18.23;40.59;100880.80;;;;-58
2022/04/04 00:31:15;;;;;;;2.33;2.13;;;;;;;18.21;40.63;100883.03;;;;-58
2022/04/04 00:34:15;;;;;;;2.33;2.13;;;;;;;18.20;40.67;100880.52;;;;-57
2022/04/04 00:37:15;;;;;;;2.29;2.09;;;;;;;18.20;40.65;100878.63;;;;-58
2022/04/04 00:40:15;;;;;;;2.35;2.15;;;;;;;18.19;40.65;100877.23;;;;-57
2022/04/04 00:43:15;;;;;;;2.43;2.23;;;;;;;18.18;40.61;100876.83;;;;-57
2022/04/04 00:46:15;;;;;;;2.43;2.23;;;;;;;18.16;40.62;100871.69;;;;-58
2022/04/04 00:49:15;;;;;;;2.31;2.11;;;;;;;18.15;40.63;100867.84;;;;-55
2022/04/04 00:52:15;;;;;;;2.27;2.07;;;;;;;18.14;40.64;100864.83;;;;-52
2022/04/04 00:55:15;;;;;;;2.37;2.17;;;;;;;18.13;40.64;100866.91;;;;-52
2022/04/04 00:58:15;;;;;;;2.28;2.08;;;;;;;18.11;40.62;100861.27;;;;-57
2022/04/04 01:01:15;;;;;;;2.33;2.13;;;;;;;18.10;40.64;100857.78;;;;-55
2022/04/04 01:04:16;;;;;;;2.45;2.25;;;;;;;18.09;40.65;100853.77;;;;-55
2022/04/04 01:07:15;;;;;;;2.40;2.20;;;;;;;18.09;40.63;100851.66;;;;-54
2022/04/04 01:10:15;;;;;;;2.22;2.02;;;;;;;18.08;40.61;100851.34;;;;-52
2022/04/04 01:13:15;;;;;;;2.33;2.13;;;;;;;18.06;40.65;100848.86;;;;-52
2022/04/04 01:16:14;;;;;;;2.44;2.24;;;;;;;18.06;40.63;100846.44;;;;-52
2022/04/04 01:19:15;;;;;;;2.35;2.15;;;;;;;18.05;40.68;100846.89;;;;-52
2022/04/04 01:22:15;;;;;;;2.37;2.17;;;;;;;18.04;40.63;100842.17;;;;-51
2022/04/04 01:25:15;;;;;;;2.30;2.10;;;;;;;18.03;40.61;100839.55;;;;-51
2022/04/04 01:28:15;;;;;;;2.35;2.10;;;;;;;18.02;40.69;100833.78;;;;-50
2022/04/04 01:31:15;;;;;;;2.27;2.07;;;;;;;18.01;40.60;100834.81;;;;-50
2022/04/04 01:34:15;;;;;;;2.31;2.11;;;;;;;18.01;40.64;100835.21;;;;-50
2022/04/04 01:37:14;;;;;;;2.37;2.17;;;;;;;17.99;40.65;100834.45;;;;-50
2022/04/04 01:40:15;;;;;;;2.07;1.91;;;;;;;17.97;40.70;100825.65;;;;-56
2022/04/04 01:43:15;;;;;;;2.30;2.10;;;;;;;17.97;40.68;100831.08;;;;-50
2022/04/04 01:46:27;;;;;;;2.51;2.23;;;;;;;17.96;40.60;100827.52;;;;-55
2022/04/04 01:49:15;;;;;;;2.34;2.14;;;;;;;17.95;40.64;100822.37;;;;-55
2022/04/04 01:52:15;;;;;;;2.41;2.21;;;;;;;17.94;40.61;100814.42;;;;-59
2022/04/04 01:55:15;;;;;;;2.33;2.13;;;;;;;17.93;40.59;100812.95;;;;-58
2022/04/04 01:58:15;;;;;;;2.41;2.21;;;;;;;17.92;40.63;100812.67;;;;-59
2022/04/04 02:01:15;;;;;;;2.30;2.10;;;;;;;17.91;40.70;100805.45;;;;-58
2022/04/04 02:04:15;;;;;;;2.39;2.19;;;;;;;17.90;40.65;100803.88;;;;-57
2022/04/04 02:07:15;;;;;;;2.39;2.19;;;;;;;17.88;40.65;100800.44;;;;-55
2022/04/04 02:10:15;;;;;;;2.33;2.13;;;;;;;17.87;40.67;100802.87;;;;-54
2022/04/04 02:13:15;;;;;;;2.35;2.15;;;;;;;17.86;40.67;100806.72;;;;-54
2022/04/04 02:16:15;;;;;;;2.25;2.05;;;;;;;17.86;40.59;100803.89;;;;-55
2022/04/04 02:19:16;;;;;;;2.40;2.08;;;;;;;17.84;40.59;100801.58;;;;-56
2022/04/04 02:22:15;;;;;;;2.37;2.17;;;;;;;17.84;40.63;100803.13;;;;-52
2022/04/04 02:25:15;;;;;;;2.52;2.29;;;;;;;17.83;40.63;100807.58;;;;-51
2022/04/04 02:28:15;;;;;;;2.52;2.32;;;;;;;17.82;40.66;100806.45;;;;-51
2022/04/04 02:31:15;;;;;;;2.32;2.12;;;;;;;17.82;40.65;100804.52;;;;-52
2022/04/04 02:34:15;;;;;;;2.41;2.21;;;;;;;17.80;40.71;100804.80;;;;-52
2022/04/04 02:37:15;;;;;;;2.32;2.12;;;;;;;17.80;40.66;100804.88;;;;-51
2022/04/04 02:40:15;;;;;;;2.53;2.33;;;;;;;17.78;40.61;100804.92;;;;-55
2022/04/04 02:43:15;;;;;;;2.52;2.32;;;;;;;17.78;40.67;100804.59;;;;-55
2022/04/04 02:46:15;;;;;;;2.27;2.08;;;;;;;17.77;40.58;100804.75;;;;-54
2022/04/04 02:49:15;;;;;;;2.38;2.18;;;;;;;17.76;40.64;100800.98;;;;-50
2022/04/04 02:52:15;;;;;;;2.47;2.27;;;;;;;17.75;40.63;100803.02;;;;-50
2022/04/04 02:58:15;;;;;;;2.59;2.39;;;;;;;17.74;40.55;100811.24;;;;-54
2022/04/04 03:01:15;;;;;;;2.43;2.23;;;;;;;17.73;40.65;100806.45;;;;-57
2022/04/04 03:04:15;;;;;;;2.47;2.27;;;;;;;17.72;40.62;100801.40;;;;-50
2022/04/04 03:07:15;;;;;;;2.49;2.29;;;;;;;17.70;40.58;100802.04;;;;-50
2022/04/04 03:10:15;;;;;;;2.71;2.40;;;;;;;17.71;40.60;100796.05;;;;-50
2022/04/04 03:13:15;;;;;;;2.45;2.25;;;;;;;17.70;40.61;100797.95;;;;-55
2022/04/04 03:16:14;;;;;;;2.58;2.38;;;;;;;17.69;40.57;100800.38;;;;-54
2022/04/04 03:19:15;;;;;;;2.53;2.33;;;;;;;17.68;40.61;100797.67;;;;-56
2022/04/04 03:22:15;;;;;;;2.58;2.38;;;;;;;17.67;40.61;100799.70;;;;-56
2022/04/04 03:25:15;;;;;;;2.51;2.31;;;;;;;17.66;40.61;100795.20;;;;-52
2022/04/04 03:28:15;;;;;;;2.37;2.17;;;;;;;17.65;40.55;100793.73;;;;-51
2022/04/04 03:31:15;;;;;;;2.63;2.43;;;;;;;17.63;40.71;100786.81;;;;-53
2022/04/04 03:34:14;;;;;;;2.39;2.19;;;;;;;17.62;40.62;100788.42;;;;-54
2022/04/04 03:37:16;;;;;;;2.43;2.23;;;;;;;17.62;40.59;100788.67;;;;-54
2022/04/04 03:40:16;;;;;;;2.29;2.09;;;;;;;17.61;40.70;100783.38;;;;-54
2022/04/04 03:43:15;;;;;;;2.41;2.21;;;;;;;17.61;40.60;100778.50;;;;-55
2022/04/04 03:46:14;;;;;;;2.63;2.43;;;;;;;17.58;40.67;100777.33;;;;-56
2022/04/04 03:49:15;;;;;;;2.47;2.27;;;;;;;17.59;40.64;100778.79;;;;-55
2022/04/04 03:52:15;;;;;;;2.57;2.37;;;;;;;17.57;40.61;100773.33;;;;-55
2022/04/04 03:55:14;;;;;;;2.45;2.25;;;;;;;17.57;40.67;100769.34;;;;-56
2022/04/04 03:58:15;;;;;;;2.49;2.29;;;;;;;17.56;40.62;100769.02;;;;-56
2022/04/04 04:01:15;;;;;;;2.73;2.50;;;;;;;17.55;40.55;100765.42;;;;-55
2022/04/04 04:04:14;;;;;;;2.46;2.26;;;;;;;17.54;40.63;100763.06;;;;-53
2022/04/04 04:07:16;;;;;;;2.59;2.23;;;;;;;17.54;40.69;100760.64;;;;-55
2022/04/04 04:10:15;;;;;;;2.40;2.20;;;;;;;17.53;40.69;100759.30;;;;-54
2022/04/04 04:13:15;;;;;;;2.61;2.41;;;;;;;17.52;40.67;100755.66;;;;-50
2022/04/04 04:16:14;;;;;;;4.06;2.19;;;;;;;17.51;40.65;100753.75;;;;-50
2022/04/04 04:20:22;;;;;;;6.47;5.14;;;;;;;16.97;36.21;100751.30;;;;-55
2022/04/04 04:23:15;;;;;;;7.79;6.99;;;;;;;16.51;35.01;100750.24;;;;-56
2022/04/04 04:26:15;;;;;;;7.01;6.31;;;;;;;16.26;34.50;100747.15;;;;-54
2022/04/04 04:29:15;;;;;;;7.89;6.17;;;;;;;16.02;34.25;100748.44;;;;-54
2022/04/04 04:32:15;;;;;;;6.07;5.47;;;;;;;15.92;34.42;100745.84;;;;-54
2022/04/04 04:35:15;;;;;;;7.05;5.22;;;;;;;16.16;35.27;100741.33;;;;-55
2022/04/04 04:38:14;;;;;;;13.43;4.89;;;;;;;16.32;36.10;100741.55;;;;-55
2022/04/04 04:41:15;;;;;;;5.99;4.46;;;;;;;16.44;36.60;100741.20;;;;-55
2022/04/04 04:44:14;;;;;;;7.30;4.36;;;;;;;16.55;37.22;100737.96;;;;-55
2022/04/04 04:47:15;;;;;;;5.19;4.01;;;;;;;16.63;37.10;100735.39;;;;-51
2022/04/04 04:50:15;;;;;;;5.25;4.17;;;;;;;16.70;37.59;100737.48;;;;-52
2022/04/04 04:59:15;;;;;;;4.00;3.55;;;;;;;16.86;38.07;100736.01;;;;-52
2022/04/04 05:02:15;;;;;;;3.75;3.36;;;;;;;16.91;38.21;100733.59;;;;-57
2022/04/04 05:05:15;;;;;;;3.85;3.53;;;;;;;16.95;38.33;100735.06;;;;-58
2022/04/04 05:08:15;;;;;;;3.91;3.51;;;;;;;17.01;38.50;100733.08;;;;-57
2022/04/04 05:11:15;;;;;;;3.74;3.30;;;;;;;17.07;38.50;100735.08;;;;-57
2022/04/04 05:14:15;;;;;;;3.31;2.99;;;;;;;17.12;38.53;100729.73;;;;-56
2022/04/04 05:17:15;;;;;;;4.07;3.21;;;;;;;17.20;38.79;100727.71;;;;-56
2022/04/04 05:20:15;;;;;;;3.81;3.05;;;;;;;17.24;38.80;100731.31;;;;-56
2022/04/04 05:23:15;;;;;;;4.31;3.08;;;;;;;17.31;38.79;100732.97;;;;-56
2022/04/04 05:26:14;;;;;;;3.80;2.95;;;;;;;17.35;38.81;100735.97;;;;-56
2022/04/04 05:29:17;;;;;;;3.59;2.97;;;;;;;17.39;38.90;100733.50;;;;-56
2022/04/04 05:32:15;;;;;;;3.45;3.03;;;;;;;17.43;38.95;100729.78;;;;-55
2022/04/04 05:35:15;;;;;;;4.21;3.03;;;;;;;17.46;39.01;100728.39;;;;-56
2022/04/04 05:38:15;;;;;;;3.36;2.96;;;;;;;17.50;39.13;100724.58;;;;-56
2022/04/04 05:41:15;;;;;;;3.90;2.92;;;;;;;17.53;39.13;100727.30;;;;-56
2022/04/04 05:44:16;;;;;;;3.08;2.78;;;;;;;17.54;39.18;100727.41;;;;-56
2022/04/04 05:47:17;;;;;;;3.21;2.88;;;;;;;17.57;39.21;100722.02;;;;-55
2022/04/04 05:50:15;;;;;;;3.10;2.80;;;;;;;17.59;39.22;100720.45;;;;-56
2022/04/04 05:53:14;;;;;;;3.81;2.73;;;;;;;17.61;39.29;100718.70;;;;-55
2022/04/04 05:56:14;;;;;;;3.05;2.61;;;;;;;17.62;39.33;100719.55;;;;-56
2022/04/04 05:59:15;;;;;;;4.39;2.75;;;;;;;17.63;39.35;100721.81;;;;-56
2022/04/04 06:02:15;;;;;;;3.46;2.77;;;;;;;17.64;39.38;100722.55;;;;-56
2022/04/04 06:05:14;;;;;;;3.89;2.79;;;;;;;17.65;39.38;100723.55;;;;-56
2022/04/04 06:08:14;;;;;;;2.96;2.55;;;;;;;17.65;39.44;100718.05;;;;-56
2022/04/04 06:11:15;;;;;;;2.99;2.69;;;;;;;17.67;39.41;100721.48;;;;-55
2022/04/04 06:14:14;;;;;;;2.83;2.49;;;;;;;17.66;39.44;100725.05;;;;-56
2022/04/04 06:17:14;;;;;;;3.35;2.80;;;;;;;17.67;39.41;100724.24;;;;-50
2022/04/04 06:20:15;;;;;;;2.87;2.65;;;;;;;17.67;39.49;100727.41;;;;-49
2022/04/04 06:23:14;;;;;;;2.77;2.57;;;;;;;17.67;39.45;100727.48;;;;-56
2022/04/04 06:26:14;;;;;;;2.61;2.41;;;;;;;17.67;39.44;100726.43;;;;-55
2022/04/04 06:29:14;;;;;;;2.67;2.47;;;;;;;17.68;39.47;100732.30;;;;-51
2022/04/04 06:32:15;;;;;;;3.19;2.79;;;;;;;17.68;39.43;100730.41;;;;-59
2022/04/04 06:35:14;;;;;;;2.61;2.41;;;;;;;17.67;39.55;100730.32;;;;-59
2022/04/04 06:38:18;;;;;;;2.66;2.33;;;;;;;17.67;39.49;100735.02;;;;-51
2022/04/04 06:41:15;;;;;;;2.60;2.40;;;;;;;17.68;39.57;100730.72;;;;-58
2022/04/04 06:44:16;;;;;;;2.57;2.37;;;;;;;17.67;39.56;100723.59;;;;-54
2022/04/04 06:47:14;;;;;;;2.71;2.48;;;;;;;17.67;39.59;100722.05;;;;-55
2022/04/04 06:50:15;;;;;;;2.59;2.39;;;;;;;17.68;39.57;100717.44;;;;-58
2022/04/04 06:53:14;;;;;;;2.72;2.49;;;;;;;17.67;39.63;100715.16;;;;-50
2022/04/04 06:56:14;;;;;;;2.53;2.33;;;;;;;17.68;39.62;100713.33;;;;-58
2022/04/04 06:59:16;;;;;;;2.45;2.25;;;;;;;17.67;39.65;100707.30;;;;-58
2022/04/04 07:02:14;;;;;;;2.50;2.30;;;;;;;17.67;39.67;100706.98;;;;-58
2022/04/04 07:05:15;;;;;;;3.35;2.61;;;;;;;17.66;39.67;100704.78;;;;-53
2022/04/04 07:08:14;;;;;;;5.77;2.78;;;;;;;17.66;39.61;100704.59;;;;-55
2022/04/04 07:11:15;;;;;;;7.11;2.71;;;;;;;17.66;39.45;100700.73;;;;-56
2022/04/04 07:14:14;;;;;;;3.73;2.49;;;;;;;17.66;39.57;100700.81;;;;-55
2022/04/04 07:17:14;;;;;;;2.69;2.46;;;;;;;17.64;39.66;100699.16;;;;-55
2022/04/04 07:20:15;;;;;;;6.63;2.79;;;;;;;17.66;39.84;100698.38;;;;-54
2022/04/04 07:23:14;;;;;;;4.95;2.45;;;;;;;17.68;40.27;100694.85;;;;-52
2022/04/04 07:26:19;;;;;;;4.96;2.46;;;;;;;17.71;40.18;100688.08;;;;-58
2022/04/04 07:29:15;;;;;;;3.39;2.47;;;;;;;17.74;40.33;100690.98;;;;-54
2022/04/04 07:32:15;;;;;;;3.27;2.27;;;;;;;17.80;40.52;100684.01;;;;-51
2022/04/04 07:35:15;;;;;;;3.72;2.53;;;;;;;17.84;40.40;100681.19;;;;-48
2022/04/04 07:38:16;;;;;;;3.33;2.15;;;;;;;17.90;40.40;100680.00;;;;-48
2022/04/04 07:41:15;;;;;;;3.43;2.29;;;;;;;17.97;40.44;100672.64;;;;-52
2022/04/04 07:44:14;;;;;;;2.65;2.45;;;;;;;18.03;40.44;100672.28;;;;-53
2022/04/04 07:47:14;;;;;;;4.01;2.33;;;;;;;18.11;40.38;100674.33;;;;-54
2022/04/04 07:50:15;;;;;;;2.99;2.49;;;;;;;18.17;40.54;100675.72;;;;-50
2022/04/04 07:53:15;;;;;;;3.03;2.32;;;;;;;18.22;40.50;100666.12;;;;-50
2022/04/04 07:56:15;;;;;;;3.09;2.20;;;;;;;18.28;40.64;100667.43;;;;-52
2022/04/04 07:59:15;;;;;;;2.53;2.16;;;;;;;18.35;40.67;100666.82;;;;-47
2022/04/04 08:02:15;;;;;;;3.34;2.30;;;;;;;18.41;40.58;100662.45;;;;-50
2022/04/04 08:05:16;;;;;;;3.53;2.51;;;;;;;18.44;40.44;100660.04;;;;-51
2022/04/04 08:08:14;;;;;;;2.57;2.13;;;;;;;18.50;40.41;100656.31;;;;-51
2022/04/04 08:11:15;;;;;;;3.21;2.20;;;;;;;18.52;40.31;100654.72;;;;-52
2022/04/04 08:14:14;;;;;;;2.47;2.27;;;;;;;18.56;40.23;100644.05;;;;-51
2022/04/04 08:17:14;;;;;;;3.11;2.10;;;;;;;18.59;40.30;100638.19;;;;-51
2022/04/04 08:20:16;;;;;;;3.23;2.01;;;;;;;18.63;40.34;100633.09;;;;-51
2022/04/04 08:23:14;;;;;;;9.71;2.35;;;;;;;18.70;40.64;100628.82;;;;-51
2022/04/04 08:26:14;;;;;;;3.88;2.21;;;;;;;18.74;40.46;100628.76;;;;-51
2022/04/04 08:29:14;;;;;;;2.85;2.09;;;;;;;18.77;40.42;100630.19;;;;-49
2022/04/04 08:32:14;;;;;;;2.75;2.15;;;;;;;18.81;40.49;100630.35;;;;-52
2022/04/04 08:35:14;;;;;;;2.21;2.01;;;;;;;18.88;40.43;100629.53;;;;-52
2022/04/04 08:38:14;;;;;;;3.29;2.10;;;;;;;18.93;40.71;100622.95;;;;-52
2022/04/04 08:41:15;;;;;;;2.78;2.17;;;;;;;18.93;40.29;100623.03;;;;-57
2022/04/04 08:44:14;;;;;;;2.80;2.19;;;;;;;18.94;40.23;100619.13;;;;-57
2022/04/04 08:47:18;;;;;;;2.25;1.90;;;;;;;18.95;40.29;100611.68;;;;-57
2022/04/04 08:50:15;;;;;;;3.15;2.11;;;;;;;18.96;40.20;100611.59;;;;-57
2022/04/04 08:53:15;;;;;;;4.04;1.97;;;;;;;18.98;40.19;100603.50;;;;-57
2022/04/04 08:56:14;;;;;;;3.49;2.11;;;;;;;19.00;40.12;100600.27;;;;-56
2022/04/04 08:59:15;;;;;;;3.93;1.96;;;;;;;19.02;40.16;100598.34;;;;-57
2022/04/04 09:02:15;;;;;;;2.59;2.07;;;;;;;19.03;40.17;100598.94;;;;-51
2022/04/04 09:05:14;;;;;;;3.01;2.01;;;;;;;19.04;40.19;100594.22;;;;-51
2022/04/04 09:08:15;;;;;;;2.07;1.90;;;;;;;19.05;40.19;100588.07;;;;-51
2022/04/04 09:11:15;;;;;;;2.59;2.09;;;;;;;19.07;40.18;100586.30;;;;-51
2022/04/04 09:14:14;;;;;;;2.07;1.90;;;;;;;19.09;40.20;100585.89;;;;-51
2022/04/04 09:17:14;;;;;;;1.96;1.82;;;;;;;19.10;40.11;100578.12;;;;-51
2022/04/04 09:20:16;;;;;;;1.99;1.89;;;;;;;19.12;40.11;100571.40;;;;-51
2022/04/04 09:23:14;;;;;;;3.43;1.95;;;;;;;19.19;40.21;100563.00;;;;-53
2022/04/04 09:26:14;;;;;;;7.05;2.13;;;;;;;19.22;40.32;100558.82;;;;-52
2022/04/04 09:29:16;;;;;;;3.04;1.93;;;;;;;19.26;40.42;100551.39;;;;-56
2022/04/04 09:32:15;;;;;;;6.63;2.00;;;;;;;19.29;40.38;100543.52;;;;-56
2022/04/04 09:35:15;;;;;;;3.68;1.99;;;;;;;19.32;40.37;100537.30;;;;-50
2022/04/04 09:38:16;;;;;;;3.01;1.90;;;;;;;19.36;40.34;100536.41;;;;-52
2022/04/04 09:41:15;;;;;;;2.88;1.84;;;;;;;19.39;40.34;100527.02;;;;-52
2022/04/04 09:44:16;;;;;;;2.80;1.89;;;;;;;19.41;40.27;100522.00;;;;-50
2022/04/04 09:47:14;;;;;;;2.51;2.00;;;;;;;19.44;40.27;100519.66;;;;-51
2022/04/04 09:50:14;;;;;;;1.95;1.78;;;;;;;19.46;40.29;100510.92;;;;-52
2022/04/04 09:53:14;;;;;;;3.29;1.93;;;;;;;19.49;40.40;100512.23;;;;-54
2022/04/04 09:56:14;;;;;;;4.63;1.97;;;;;;;19.53;40.06;100504.87;;;;-54
2022/04/04 09:59:15;;;;;;;6.90;2.11;;;;;;;19.54;40.09;100494.53;;;;-56
2022/04/04 10:02:14;;;;;;;5.09;1.97;;;;;;;19.56;40.00;100495.04;;;;-52
2022/04/04 10:05:14;;;;;;;3.63;1.83;;;;;;;19.57;39.97;100489.13;;;;-52
2022/04/04 10:08:15;;;;;;;4.63;1.91;;;;;;;19.61;40.19;100487.41;;;;-54
2022/04/04 10:11:15;;;;;;;2.55;1.89;;;;;;;19.63;40.23;100487.70;;;;-53
2022/04/04 10:14:14;;;;;;;3.43;1.86;;;;;;;19.65;39.83;100478.84;;;;-51
2022/04/04 10:17:14;;;;;;;3.86;1.82;;;;;;;19.66;39.92;100474.28;;;;-52
2022/04/04 10:20:15;;;;;;;2.02;1.81;;;;;;;19.65;39.85;100469.09;;;;-51
2022/04/04 10:23:14;;;;;;;3.41;1.78;;;;;;;19.67;40.25;100452.84;;;;-53
2022/04/04 10:26:15;;;;;;;2.37;1.70;;;;;;;19.70;40.34;100454.16;;;;-52
2022/04/04 10:29:15;;;;;;;1.98;1.69;;;;;;;19.71;40.22;100450.19;;;;-51
2022/04/04 10:32:14;;;;;;;2.92;1.77;;;;;;;19.72;40.13;100433.63;;;;-55
2022/04/04 10:35:14;;;;;;;1.78;1.67;;;;;;;19.74;40.26;100436.56;;;;-57
2022/04/04 10:38:14;;;;;;;2.49;1.90;;;;;;;19.75;40.15;100430.70;;;;-54
2022/04/04 10:41:14;;;;;;;2.63;1.65;;;;;;;19.76;40.22;100428.28;;;;-51
2022/04/04 10:44:20;;;;;;;1.97;1.77;;;;;;;19.76;40.30;100419.66;;;;-51
2022/04/04 10:47:15;;;;;;;1.73;1.51;;;;;;;19.77;40.21;100413.87;;;;-50
2022/04/04 10:50:14;;;;;;;2.01;1.81;;;;;;;19.79;40.36;100398.11;;;;-51
2022/04/04 10:53:14;;;;;;;2.79;1.77;;;;;;;19.78;39.93;100390.48;;;;-50
2022/04/04 10:56:14;;;;;;;2.61;1.71;;;;;;;19.77;40.03;100385.58;;;;-50
2022/04/04 10:59:15;;;;;;;2.87;1.65;;;;;;;19.75;39.91;100383.94;;;;-50
2022/04/04 11:02:14;;;;;;;2.01;1.70;;;;;;;19.75;39.89;100376.14;;;;-50
2022/04/04 11:08:15;;;;;;;2.41;1.70;;;;;;;19.73;39.97;100364.99;;;;-53
2022/04/04 11:11:14;;;;;;;1.72;1.62;;;;;;;19.72;39.92;100363.38;;;;-51
2022/04/04 11:14:15;;;;;;;2.34;1.73;;;;;;;19.72;39.92;100345.48;;;;-51
2022/04/04 11:17:18;;;;;;;1.90;1.71;;;;;;;19.71;39.91;100346.45;;;;-51
2022/04/04 11:20:21;;;;;;;2.08;1.69;;;;;;;19.71;39.88;100330.27;;;;-51
2022/04/04 11:23:14;;;;;;;1.95;1.70;;;;;;;19.71;39.90;100329.28;;;;-53
2022/04/04 11:26:17;;;;;;;2.19;1.61;;;;;;;19.71;39.91;100324.58;;;;-53
2022/04/04 11:29:19;;;;;;;2.73;1.70;;;;;;;19.70;39.91;100317.32;;;;-51
2022/04/04 11:32:16;;;;;;;7.12;1.95;;;;;;;19.73;40.04;100311.91;;;;-50
2022/04/04 11:35:14;;;;;;;2.82;1.67;;;;;;;19.72;39.30;100307.03;;;;-47
2022/04/04 11:38:18;;;;;;;4.85;1.77;;;;;;;19.73;38.91;100300.03;;;;-51
2022/04/04 11:41:14;;;;;;;2.13;1.69;;;;;;;19.74;39.43;100294.36;;;;-52
2022/04/04 11:44:14;;;;;;;3.99;1.70;;;;;;;19.74;39.47;100279.40;;;;-52
2022/04/04 11:47:16;;;;;;;2.61;1.50;;;;;;;19.75;39.61;100283.45;;;;-52
2022/04/04 11:50:14;;;;;;;4.00;1.65;;;;;;;19.75;39.58;100274.91;;;;-54
2022/04/04 11:53:14;;;;;;;1.74;1.62;;;;;;;19.77;39.68;100268.48;;;;-53
2022/04/04 11:56:20;;;;;;;2.01;1.53;;;;;;;19.78;39.70;100265.42;;;;-54
2022/04/04 11:59:15;;;;;;;1.99;1.52;;;;;;;19.78;39.70;100258.02;;;;-50
2022/04/04 12:02:14;;;;;;;6.60;1.81;;;;;;;19.80;39.85;100258.42;;;;-60
2022/04/04 12:05:16;;;;;;;2.67;1.70;;;;;;;19.78;38.09;100243.78;;;;-60
2022/04/04 12:08:15;;;;;;;5.39;1.90;;;;;;;19.78;38.42;100244.02;;;;-57
2022/04/04 12:11:14;;;;;;;2.85;1.60;;;;;;;19.79;39.02;100237.43;;;;-49
2022/04/04 12:14:14;;;;;;;3.02;1.60;;;;;;;19.79;39.17;100229.78;;;;-49
2022/04/04 12:17:15;;;;;;;1.69;1.59;;;;;;;19.80;39.31;100224.44;;;;-49
2022/04/04 12:20:14;;;;;;;1.81;1.68;;;;;;;19.80;39.32;100221.36;;;;-49
2022/04/04 12:26:14;;;;;;;3.61;1.70;;;;;;;19.82;39.66;100209.73;;;;-51
2022/04/04 12:29:14;;;;;;;3.23;1.60;;;;;;;19.85;40.02;100207.03;;;;-55
2022/04/04 12:32:14;;;;;;;2.03;1.67;;;;;;;19.88;40.12;100200.30;;;;-52
2022/04/04 12:35:14;;;;;;;1.96;1.56;;;;;;;19.91;40.11;100183.95;;;;-55
2022/04/04 12:38:14;;;;;;;2.55;1.55;;;;;;;19.93;40.09;100185.73;;;;-57
2022/04/04 12:41:15;;;;;;;2.25;1.61;;;;;;;19.93;40.24;100175.07;;;;-50
2022/04/04 12:44:14;;;;;;;2.25;1.51;;;;;;;19.95;40.25;100177.59;;;;-51
2022/04/04 12:47:15;;;;;;;2.35;1.53;;;;;;;19.97;40.32;100175.16;;;;-53
2022/04/04 12:50:15;;;;;;;2.93;1.56;;;;;;;19.98;40.41;100155.63;;;;-54
2022/04/04 12:53:14;;;;;;;1.86;1.49;;;;;;;20.01;40.31;100154.10;;;;-56
2022/04/04 12:56:14;;;;;;;1.81;1.41;;;;;;;20.02;40.45;100139.03;;;;-53
2022/04/04 12:59:14;;;;;;;2.11;1.52;;;;;;;20.05;40.44;100157.27;;;;-53
2022/04/04 13:02:15;;;;;;;5.07;1.69;;;;;;;20.06;40.58;100135.78;;;;-52
2022/04/04 13:05:14;;;;;;;6.51;1.61;;;;;;;20.07;40.08;100132.78;;;;-59
2022/04/04 13:08:14;;;;;;;3.32;1.67;;;;;;;20.08;40.05;100136.75;;;;-51
2022/04/04 13:11:14;;;;;;;4.49;1.70;;;;;;;20.12;40.19;100131.14;;;;-51
2022/04/04 13:14:14;;;;;;;6.56;1.71;;;;;;;20.13;40.32;100128.37;;;;-57
2022/04/04 13:17:14;;;;;;;4.84;1.60;;;;;;;20.15;40.27;100115.44;;;;-54
2022/04/04 13:20:14;;;;;;;2.16;1.59;;;;;;;20.17;40.32;100116.88;;;;-53
2022/04/04 13:23:14;;;;;;;5.60;1.64;;;;;;;20.17;40.21;100122.51;;;;-56
2022/04/04 13:26:14;;;;;;;3.31;1.47;;;;;;;20.18;40.30;100108.43;;;;-53
2022/04/04 13:29:14;;;;;;;2.96;1.58;;;;;;;20.21;40.34;100093.77;;;;-53
2022/04/04 13:32:14;;;;;;;2.75;1.43;;;;;;;20.20;40.29;100098.17;;;;-52
2022/04/04 13:35:14;;;;;;;5.31;1.50;;;;;;;20.21;40.25;100099.31;;;;-51
2022/04/04 13:38:14;;;;;;;2.34;1.51;;;;;;;20.24;40.19;100086.86;;;;-53
2022/04/04 13:41:15;;;;;;;3.21;1.60;;;;;;;20.23;40.57;100083.69;;;;-52
2022/04/04 13:44:15;;;;;;;1.91;1.49;;;;;;;20.26;40.90;100080.09;;;;-51
2022/04/04 13:47:15;;;;;;;2.23;1.63;;;;;;;20.26;40.70;100071.63;;;;-51
2022/04/04 13:50:15;;;;;;;7.44;1.76;;;;;;;20.27;39.70;100074.95;;;;-47
2022/04/04 13:53:14;;;;;;;6.04;1.78;;;;;;;20.25;39.98;100067.64;;;;-54
2022/04/04 13:56:17;;;;;;;4.60;1.55;;;;;;;20.25;40.02;100073.25;;;;-59
2022/04/04 13:59:14;;;;;;;4.33;1.70;;;;;;;20.24;39.94;100067.66;;;;-53
2022/04/04 14:02:14;;;;;;;3.86;1.64;;;;;;;20.25;40.09;100058.69;;;;-51
2022/04/04 14:05:14;;;;;;;2.51;1.63;;;;;;;20.25;40.17;100065.95;;;;-54
2022/04/04 14:08:15;;;;;;;3.70;1.63;;;;;;;20.28;40.33;100068.61;;;;-51
2022/04/04 14:11:14;;;;;;;2.03;1.51;;;;;;;20.29;40.23;100063.00;;;;-51
2022/04/04 14:14:15;;;;;;;7.30;1.79;;;;;;;20.31;40.21;100048.89;;;;-54
2022/04/04 14:17:15;;;;;;;3.59;1.55;;;;;;;20.33;40.28;100048.23;;;;-49
2022/04/04 14:20:15;;;;;;;2.68;1.40;;;;;;;20.34;40.32;100041.19;;;;-53
2022/04/04 14:23:16;;;;;;;6.73;1.58;;;;;;;20.32;39.92;100041.10;;;;-45
2022/04/04 14:26:14;;;;;;;15.53;2.03;;;;;;;20.32;39.79;100040.12;;;;-52
2022/04/04 14:29:14;;;;;;;3.16;1.68;;;;;;;20.36;39.82;100037.58;;;;-51
2022/04/04 14:32:14;;;;;;;4.13;1.62;;;;;;;20.34;39.75;100031.32;;;;-51
2022/04/04 14:35:14;;;;;;;2.69;1.50;;;;;;;20.34;39.72;100026.77;;;;-52
2022/04/04 14:38:14;;;;;;;3.15;1.62;;;;;;;20.32;39.68;100025.63;;;;-49
2022/04/04 14:41:14;;;;;;;3.67;1.52;;;;;;;20.32;39.70;100023.36;;;;-48
2022/04/04 14:44:14;;;;;;;2.79;1.40;;;;;;;20.35;39.74;100028.38;;;;-49
2022/04/04 14:47:15;;;;;;;2.61;1.51;;;;;;;20.36;39.94;100025.86;;;;-50
2022/04/04 14:50:14;;;;;;;3.91;1.60;;;;;;;20.38;39.87;100015.11;;;;-52
2022/04/04 14:53:14;;;;;;;2.26;1.50;;;;;;;20.42;40.17;100006.30;;;;-53
2022/04/04 14:56:15;;;;;;;2.37;1.61;;;;;;;20.45;40.09;100007.52;;;;-53
2022/04/04 14:59:14;;;;;;;2.19;1.43;;;;;;;20.49;40.10;99999.43;;;;-51
2022/04/04 15:02:14;;;;;;;2.16;1.43;;;;;;;20.49;40.06;100001.05;;;;-49
2022/04/04 15:05:15;;;;;;;1.67;1.40;;;;;;;20.50;40.13;99994.69;;;;-48
2022/04/04 15:08:14;;;;;;;2.29;1.51;;;;;;;20.49;39.78;99987.38;;;;-51
2022/04/04 15:11:14;;;;;;;4.63;1.49;;;;;;;20.49;39.88;99987.53;;;;-52
2022/04/04 15:14:15;;;;;;;1.55;1.40;;;;;;;20.51;39.97;99978.00;;;;-53
2022/04/04 15:17:14;;;;;;;5.36;1.41;;;;;;;20.50;39.79;99969.54;;;;-54
2022/04/04 15:20:15;;;;;;;2.73;1.49;;;;;;;20.50;39.79;99969.62;;;;-56
2022/04/04 15:23:14;;;;;;;1.80;1.49;;;;;;;20.51;40.01;99959.70;;;;-55
2022/04/04 15:26:14;;;;;;;2.21;1.51;;;;;;;20.51;40.07;99964.66;;;;-56
2022/04/04 15:29:15;;;;;;;3.00;1.48;;;;;;;20.53;40.23;99967.18;;;;-58
2022/04/04 15:32:14;;;;;;;3.09;1.40;;;;;;;20.52;39.85;99961.14;;;;-58
2022/04/04 15:35:14;;;;;;;2.49;1.43;;;;;;;20.54;40.15;99959.19;;;;-59
2022/04/04 15:38:15;;;;;;;2.42;1.52;;;;;;;20.55;40.16;99970.75;;;;-55
2022/04/04 15:41:14;;;;;;;1.70;1.48;;;;;;;20.56;40.00;99960.63;;;;-50
2022/04/04 15:44:15;;;;;;;2.25;1.45;;;;;;;20.57;39.93;99975.46;;;;-49
2022/04/04 15:47:14;;;;;;;2.58;1.43;;;;;;;20.58;39.97;99957.53;;;;-54
2022/04/04 15:50:14;;;;;;;2.62;1.51;;;;;;;20.59;39.88;99977.77;;;;-54
2022/04/04 15:53:16;;;;;;;2.49;1.48;;;;;;;20.58;39.71;99961.44;;;;-56
2022/04/04 15:56:14;;;;;;;4.59;1.66;;;;;;;20.58;39.63;99968.71;;;;-54
2022/04/04 15:59:15;;;;;;;2.89;1.49;;;;;;;20.60;39.88;99954.69;;;;-56
2022/04/04 16:02:14;;;;;;;6.43;1.58;;;;;;;20.61;39.54;99960.22;;;;-57
2022/04/04 16:05:14;;;;;;;2.24;1.55;;;;;;;20.58;39.66;99955.52;;;;-57
2022/04/04 16:08:14;;;;;;;4.28;1.47;;;;;;;20.60;39.76;99955.43;;;;-51
2022/04/04 16:11:14;;;;;;;3.01;1.35;;;;;;;20.61;39.84;99954.36;;;;-52
2022/04/04 16:14:20;;;;;;;2.37;1.40;;;;;;;20.63;39.85;99958.84;;;;-52
2022/04/04 16:17:14;;;;;;;2.25;1.35;;;;;;;20.63;39.92;99954.12;;;;-53
2022/04/04 16:20:14;;;;;;;2.79;1.55;;;;;;;20.65;39.88;99967.78;;;;-52
2022/04/04 16:23:14;;;;;;;2.78;1.50;;;;;;;20.65;39.95;99957.36;;;;-52
2022/04/04 16:26:14;;;;;;;3.63;1.47;;;;;;;20.67;40.00;99946.28;;;;-51
2022/04/04 16:29:14;;;;;;;1.83;1.33;;;;;;;20.66;40.05;99960.52;;;;-54
2022/04/04 16:32:14;;;;;;;2.13;1.50;;;;;;;20.67;40.10;99960.36;;;;-54
2022/04/04 16:35:14;;;;;;;2.15;1.58;;;;;;;20.69;40.16;99971.83;;;;-55
2022/04/04 16:38:14;;;;;;;1.81;1.40;;;;;;;20.69;40.27;99975.49;;;;-53
2022/04/04 16:41:15;;;;;;;2.49;1.46;;;;;;;20.71;40.25;99972.45;;;;-56
2022/04/04 16:44:14;;;;;;;2.77;1.35;;;;;;;20.72;40.34;99981.09;;;;-54
2022/04/04 16:47:14;;;;;;;2.61;1.51;;;;;;;20.71;40.43;99974.42;;;;-54
2022/04/04 16:50:17;;;;;;;3.37;1.39;;;;;;;20.73;40.62;99980.50;;;;-56
2022/04/04 16:53:14;;;;;;;2.16;1.40;;;;;;;20.73;41.02;99985.00;;;;-51
2022/04/04 16:56:14;;;;;;;2.21;1.41;;;;;;;20.73;41.26;99988.56;;;;-53
2022/04/04 16:59:14;;;;;;;1.93;1.46;;;;;;;20.74;41.19;99988.48;;;;-54